Time;durP1;ratioP1;P1;durP2;ratioP2;P2;SDS_P1;SDS_P2;PMS_P1;PMS_P2;Temp;Humidity;BMP_temperature;BMP_pressure;BME280_temperature;BME280_humidity;BME280_pressure;Samples;Min_cycle;Max_cycle;Signal;HPM_P1;HPM_P2
2021/04/20 00:00:27;;;;;;;67.90;43.08;;;8.40;99.90;;;;;;2072888;28;20018;-68
2021/04/20 00:01:27;;;;;;;68.78;42.70;;;8.40;99.90;;;;;;2072533;28;20025;-68
2021/04/20 00:02:28;;;;;;;66.53;42.45;;;8.30;99.90;;;;;;2072440;28;20030;-68
2021/04/20 00:03:28;;;;;;;67.72;42.72;;;8.30;99.90;;;;;;2072997;28;20108;-68
2021/04/20 00:04:29;;;;;;;68.82;43.75;;;8.30;99.90;;;;;;2072807;28;20017;-68
2021/04/20 00:05:30;;;;;;;71.45;42.30;;;8.30;99.90;;;;;;2072861;28;20018;-68
2021/04/20 00:06:32;;;;;;;70.03;44.80;;;8.30;99.90;;;;;;2072500;28;20505;-68
2021/04/20 00:07:33;;;;;;;73.43;44.60;;;8.30;99.90;;;;;;2072707;28;20029;-68
2021/04/20 00:08:34;;;;;;;73.82;45.85;;;8.30;99.90;;;;;;2072730;28;20562;-68
2021/04/20 00:09:35;;;;;;;78.35;47.50;;;8.20;99.90;;;;;;2072807;28;20811;-68
2021/04/20 00:10:35;;;;;;;75.03;46.17;;;8.20;99.90;;;;;;2072768;28;20030;-67
2021/04/20 00:11:37;;;;;;;78.63;47.28;;;8.20;99.90;;;;;;2072671;28;20029;-68
2021/04/20 00:12:37;;;;;;;73.30;45.00;;;8.20;99.90;;;;;;2072702;28;20026;-68
2021/04/20 00:13:38;;;;;;;70.65;43.78;;;8.20;99.90;;;;;;2072645;28;20105;-68
2021/04/20 00:14:39;;;;;;;73.60;45.78;;;8.10;99.90;;;;;;2072653;28;20022;-68
2021/04/20 00:15:39;;;;;;;70.60;44.45;;;8.10;99.90;;;;;;2072760;28;20032;-68
2021/04/20 00:16:40;;;;;;;75.82;45.28;;;8.10;99.90;;;;;;2071727;28;20080;-68
2021/04/20 00:17:41;;;;;;;70.85;43.28;;;8.10;99.90;;;;;;2072072;28;20068;-68
2021/04/20 00:18:42;;;;;;;70.32;44.08;;;8.10;99.90;;;;;;2068395;28;20049;-68
2021/04/20 00:19:42;;;;;;;72.32;44.10;;;8.10;99.90;;;;;;2072531;28;20422;-67
2021/04/20 00:20:43;;;;;;;71.68;44.08;;;8.10;99.90;;;;;;2072073;28;20096;-67
2021/04/20 00:21:44;;;;;;;71.63;45.25;;;8.10;99.90;;;;;;2072156;28;20034;-67
2021/04/20 00:22:45;;;;;;;75.63;45.67;;;8.10;99.90;;;;;;2072705;28;20057;-68
2021/04/20 00:23:46;;;;;;;73.25;45.15;;;8.10;99.90;;;;;;2072611;28;20460;-68
2021/04/20 00:24:46;;;;;;;73.43;45.00;;;8.10;99.90;;;;;;2072239;28;20033;-67
2021/04/20 00:25:47;;;;;;;76.97;46.40;;;8.00;99.90;;;;;;2072362;28;20079;-67
2021/04/20 00:26:47;;;;;;;71.90;43.75;;;8.10;99.90;;;;;;2072710;28;20509;-67
2021/04/20 00:27:48;;;;;;;70.45;43.88;;;8.00;99.90;;;;;;2072597;28;20157;-67
2021/04/20 00:28:49;;;;;;;70.60;43.70;;;8.00;99.90;;;;;;2072603;28;20454;-67
2021/04/20 00:29:49;;;;;;;72.68;43.47;;;8.00;99.90;;;;;;2072530;28;20036;-68
2021/04/20 00:30:50;;;;;;;73.95;44.47;;;8.10;99.90;;;;;;2072621;28;20644;-68
2021/04/20 00:31:51;;;;;;;75.07;45.83;;;8.00;99.90;;;;;;2072662;28;20054;-67
2021/04/20 00:32:52;;;;;;;77.45;47.10;;;8.10;99.90;;;;;;2072705;28;20025;-67
2021/04/20 00:33:52;;;;;;;77.55;47.28;;;8.10;99.90;;;;;;2072824;28;20041;-67
2021/04/20 00:34:53;;;;;;;75.13;45.40;;;8.10;99.90;;;;;;2072367;28;20073;-67
2021/04/20 00:35:53;;;;;;;73.53;44.60;;;8.10;99.90;;;;;;2071997;28;20513;-67
2021/04/20 00:36:54;;;;;;;73.22;44.65;;;8.00;99.90;;;;;;2072976;28;20397;-67
2021/04/20 00:37:54;;;;;;;70.38;44.67;;;8.10;99.90;;;;;;2072946;28;20026;-68
2021/04/20 00:38:55;;;;;;;72.43;43.38;;;8.00;99.90;;;;;;2073029;28;20100;-67
2021/04/20 00:39:56;;;;;;;72.72;44.42;;;8.10;99.90;;;;;;2073573;28;20022;-67
2021/04/20 00:41:05;;;;;;;85.05;50.63;;;8.10;99.90;;;;;;2073532;28;20671;-67
2021/04/20 00:42:07;;;;;;;81.80;48.28;;;8.10;99.90;;;;;;2073521;28;20022;-67
2021/04/20 00:43:08;;;;;;;86.68;51.47;;;8.10;99.90;;;;;;2073468;28;20026;-68
2021/04/20 00:44:09;;;;;;;84.95;49.45;;;8.20;99.90;;;;;;2073514;28;20050;-67
2021/04/20 00:45:11;;;;;;;84.05;50.13;;;8.20;99.90;;;;;;2073681;28;20083;-67
2021/04/20 00:46:20;;;;;;;86.13;51.38;;;8.20;99.90;;;;;;2072595;28;20022;-68
2021/04/20 00:47:21;;;;;;;81.40;49.05;;;8.20;99.90;;;;;;2072605;28;20615;-68
2021/04/20 00:48:22;;;;;;;85.65;50.33;;;8.20;99.90;;;;;;2072794;28;20038;-67
2021/04/20 00:49:22;;;;;;;85.85;49.83;;;8.20;99.90;;;;;;2072106;28;20053;-68
2021/04/20 00:50:29;;;;;;;88.47;51.53;;;8.20;99.90;;;;;;2072050;28;20112;-67
2021/04/20 00:51:29;;;;;;;87.35;51.72;;;8.30;99.90;;;;;;2080162;28;20547;-67
2021/04/20 00:52:30;;;;;;;89.90;51.83;;;8.30;99.90;;;;;;2080162;28;20115;-67
2021/04/20 00:53:32;;;;;;;86.25;50.28;;;8.30;99.90;;;;;;2069501;28;20109;-68
2021/04/20 00:54:32;;;;;;;84.95;50.67;;;8.30;99.90;;;;;;2058451;28;20529;-69
2021/04/20 00:55:34;;;;;;;85.15;51.30;;;8.30;99.90;;;;;;2072827;28;20041;-68
2021/04/20 00:56:37;;;;;;;83.75;50.40;;;8.30;99.90;;;;;;2072259;28;20034;-67
2021/04/20 00:57:38;;;;;;;85.85;49.97;;;8.30;99.90;;;;;;2069078;28;20137;-69
2021/04/20 00:58:39;;;;;;;77.97;47.78;;;8.30;99.90;;;;;;2067984;28;20037;-68
2021/04/20 00:59:40;;;;;;;81.82;49.83;;;8.30;99.90;;;;;;2072697;28;20030;-69
2021/04/20 01:00:40;;;;;;;86.43;51.28;;;8.30;99.90;;;;;;2072467;28;20050;-68
2021/04/20 01:01:42;;;;;;;83.32;49.78;;;8.30;99.90;;;;;;2072476;28;20065;-68
2021/04/20 01:02:43;;;;;;;84.00;49.10;;;8.30;99.90;;;;;;2072362;28;20363;-68
2021/04/20 01:03:43;;;;;;;80.60;48.20;;;8.30;99.90;;;;;;2068247;28;20149;-68
2021/04/20 01:04:44;;;;;;;77.78;47.38;;;8.30;99.90;;;;;;2068469;28;20442;-69
2021/04/20 01:05:46;;;;;;;79.90;47.55;;;8.30;99.90;;;;;;2071337;28;20080;-67
2021/04/20 01:06:48;;;;;;;81.03;48.45;;;8.30;99.90;;;;;;2071704;28;20033;-68
2021/04/20 01:07:49;;;;;;;81.85;48.97;;;8.30;99.90;;;;;;2067380;28;20056;-68
2021/04/20 01:08:50;;;;;;;79.47;46.60;;;8.30;99.90;;;;;;2069329;28;20032;-68
2021/04/20 01:09:52;;;;;;;76.22;46.38;;;8.40;99.90;;;;;;2071577;28;20053;-67
2021/04/20 01:10:55;;;;;;;75.72;45.85;;;8.40;99.90;;;;;;2071783;28;20108;-68
2021/04/20 01:11:56;;;;;;;74.47;46.28;;;8.40;99.90;;;;;;2070040;28;20033;-68
2021/04/20 01:12:57;;;;;;;77.93;46.17;;;8.30;99.90;;;;;;2072313;28;20053;-68
2021/04/20 01:14:00;;;;;;;76.05;45.00;;;8.40;99.90;;;;;;2072338;28;20046;-68
2021/04/20 01:15:02;;;;;;;74.75;45.45;;;8.30;99.90;;;;;;2072352;28;20022;-68
2021/04/20 01:16:03;;;;;;;76.50;45.92;;;8.30;99.90;;;;;;2072036;28;20014;-69
2021/04/20 01:17:03;;;;;;;82.47;49.78;;;8.30;99.90;;;;;;2072945;28;20030;-68
2021/04/20 01:18:10;;;;;;;82.45;50.20;;;8.30;99.90;;;;;;2078742;28;20064;-68
2021/04/20 01:19:15;;;;;;;85.35;49.78;;;8.30;99.90;;;;;;2072567;28;20022;-68
2021/04/20 01:20:16;;;;;;;80.53;48.60;;;8.20;99.90;;;;;;2072450;28;20030;-67
2021/04/20 01:21:17;;;;;;;81.30;48.30;;;8.20;99.90;;;;;;2071794;28;20034;-69
2021/04/20 01:22:19;;;;;;;79.07;47.28;;;8.20;99.90;;;;;;2071188;28;20049;-67
2021/04/20 01:23:37;;;;;;;77.65;46.67;;;8.20;99.90;;;;;;2064303;28;20023;-67
2021/04/20 01:24:38;;;;;;;75.55;45.88;;;8.20;99.90;;;;;;2067261;28;20126;-67
2021/04/20 01:25:39;;;;;;;74.80;45.22;;;8.10;99.90;;;;;;2072265;28;20076;-68
2021/04/20 01:26:43;;;;;;;77.50;46.50;;;8.10;99.90;;;;;;2071924;28;20524;-68
2021/04/20 01:27:43;;;;;;;76.00;45.70;;;8.10;99.90;;;;;;2072252;28;20014;-67
2021/04/20 01:28:45;;;;;;;76.22;45.72;;;8.10;99.90;;;;;;2067992;28;20100;-67
2021/04/20 01:29:46;;;;;;;75.07;45.53;;;8.10;99.90;;;;;;2068597;28;20417;-68
2021/04/20 01:30:47;;;;;;;72.25;44.92;;;8.00;99.90;;;;;;2072088;28;20101;-68
2021/04/20 01:31:49;;;;;;;78.90;46.45;;;8.00;99.90;;;;;;2071945;28;20026;-68
2021/04/20 01:32:49;;;;;;;74.80;45.00;;;8.00;99.90;;;;;;2072414;28;20409;-68
2021/04/20 01:33:50;;;;;;;72.00;43.78;;;7.90;99.90;;;;;;2072073;28;20018;-68
2021/04/20 01:34:51;;;;;;;74.60;44.83;;;7.90;99.90;;;;;;2072322;28;20433;-68
2021/04/20 01:35:52;;;;;;;74.05;44.70;;;7.90;99.90;;;;;;2071737;28;20021;-68
2021/04/20 01:36:53;;;;;;;74.00;45.40;;;7.90;99.90;;;;;;2072142;28;20037;-68
2021/04/20 01:37:54;;;;;;;70.10;43.90;;;7.80;99.90;;;;;;2072144;28;20026;-68
2021/04/20 01:38:56;;;;;;;72.55;45.22;;;7.80;99.90;;;;;;2072196;28;20084;-67
2021/04/20 01:39:56;;;;;;;72.70;44.33;;;7.80;99.90;;;;;;2072103;28;20018;-68
2021/04/20 01:40:58;;;;;;;72.45;44.10;;;7.80;99.90;;;;;;2072105;28;20026;-67
2021/04/20 01:42:00;;;;;;;75.65;46.33;;;7.80;99.90;;;;;;2072173;28;20022;-67
2021/04/20 01:43:02;;;;;;;74.50;44.88;;;7.70;99.90;;;;;;2072146;28;20014;-68
2021/04/20 01:44:04;;;;;;;75.65;46.05;;;7.70;99.90;;;;;;2071153;28;20089;-68
2021/04/20 01:45:09;;;;;;;76.82;45.83;;;7.70;99.90;;;;;;2071187;28;20562;-68
2021/04/20 01:46:09;;;;;;;79.78;47.35;;;7.70;99.90;;;;;;2070504;28;20033;-67
2021/04/20 01:47:11;;;;;;;74.75;45.50;;;7.70;99.90;;;;;;2071839;28;20068;-68
2021/04/20 01:48:12;;;;;;;76.50;46.75;;;7.60;99.90;;;;;;2071905;28;20034;-68
2021/04/20 01:49:12;;;;;;;78.47;46.80;;;7.60;99.90;;;;;;2072009;28;20021;-67
2021/04/20 01:50:13;;;;;;;77.55;46.15;;;7.60;99.90;;;;;;2072181;28;20061;-68
2021/04/20 01:51:15;;;;;;;76.82;45.25;;;7.60;99.90;;;;;;2072036;28;20021;-68
2021/04/20 01:52:16;;;;;;;77.50;45.67;;;7.60;99.90;;;;;;2071812;28;20025;-67
2021/04/20 01:53:17;;;;;;;75.93;45.13;;;7.50;99.90;;;;;;2072017;28;20486;-67
2021/04/20 01:54:18;;;;;;;76.57;46.30;;;7.50;99.90;;;;;;2071271;28;20109;-67
2021/04/20 01:55:19;;;;;;;76.82;46.20;;;7.50;99.90;;;;;;2071295;28;20073;-67
2021/04/20 01:56:20;;;;;;;75.05;45.28;;;7.50;99.90;;;;;;2071141;28;20034;-68
2021/04/20 01:57:22;;;;;;;76.57;45.47;;;7.50;99.90;;;;;;2071871;28;20103;-70
2021/04/20 01:58:23;;;;;;;71.05;43.30;;;7.50;99.90;;;;;;2072040;28;20029;-67
2021/04/20 01:59:24;;;;;;;71.85;43.38;;;7.50;99.90;;;;;;2071826;28;20022;-68
2021/04/20 02:00:25;;;;;;;72.65;43.75;;;7.50;99.90;;;;;;2070495;28;20735;-68
2021/04/20 02:01:27;;;;;;;77.35;46.05;;;7.50;99.90;;;;;;2070981;28;20438;-67
2021/04/20 02:02:28;;;;;;;75.97;45.10;;;7.50;99.90;;;;;;2079509;28;20029;-70
2021/04/20 02:03:29;;;;;;;75.72;44.90;;;7.40;99.90;;;;;;2079662;28;20034;-67
2021/04/20 02:04:30;;;;;;;80.30;46.85;;;7.40;99.90;;;;;;2071426;28;20026;-67
2021/04/20 02:05:31;;;;;;;78.35;46.33;;;7.40;99.90;;;;;;2071202;28;20021;-69
2021/04/20 02:06:32;;;;;;;77.78;45.22;;;7.40;99.90;;;;;;2071007;28;20057;-67
2021/04/20 02:07:33;;;;;;;80.00;46.47;;;7.40;99.90;;;;;;2070571;28;20037;-67
2021/04/20 02:08:34;;;;;;;78.25;45.22;;;7.40;99.90;;;;;;2062596;28;20061;-67
2021/04/20 02:09:35;;;;;;;79.93;47.50;;;7.40;99.90;;;;;;2066074;28;20804;-71
2021/04/20 02:10:36;;;;;;;78.97;45.20;;;7.40;99.90;;;;;;2071975;28;20041;-67
2021/04/20 02:11:37;;;;;;;83.07;46.88;;;7.50;99.90;;;;;;2071987;28;20026;-69
2021/04/20 02:12:46;;;;;;;82.70;47.00;;;7.50;99.90;;;;;;2071912;28;20520;-68
2021/04/20 02:13:48;;;;;;;81.88;47.30;;;7.50;99.90;;;;;;2072078;28;20017;-68
2021/04/20 02:14:49;;;;;;;81.75;46.50;;;7.50;99.90;;;;;;2072041;28;20034;-68
2021/04/20 02:15:50;;;;;;;84.13;48.58;;;7.60;99.90;;;;;;2071672;28;20517;-68
2021/04/20 02:16:50;;;;;;;84.68;48.17;;;7.60;99.90;;;;;;2072078;28;20120;-67
2021/04/20 02:17:54;;;;;;;89.28;49.95;;;7.70;99.90;;;;;;2071610;28;20161;-67
2021/04/20 02:18:57;;;;;;;86.80;49.50;;;7.70;99.90;;;;;;2071987;28;20172;-67
2021/04/20 02:20:00;;;;;;;87.72;48.80;;;7.70;99.90;;;;;;2079647;28;20021;-68
2021/04/20 02:21:01;;;;;;;85.13;48.00;;;7.70;99.90;;;;;;2071972;28;20022;-67
2021/04/20 02:22:03;;;;;;;82.55;47.38;;;7.70;99.90;;;;;;2072182;28;20100;-67
2021/04/20 02:23:04;;;;;;;86.13;48.78;;;7.70;99.90;;;;;;2072047;28;20389;-67
2021/04/20 02:24:15;;;;;;;84.18;47.83;;;7.70;99.90;;;;;;2071927;28;20058;-67
2021/04/20 02:25:18;;;;;;;84.90;47.78;;;7.80;99.90;;;;;;2071654;28;20041;-68
2021/04/20 02:26:26;;;;;;;82.70;47.65;;;7.80;99.90;;;;;;2079092;28;20032;-68
2021/04/20 02:27:27;;;;;;;75.60;44.05;;;7.80;99.90;;;;;;2071230;28;20463;-67
2021/04/20 02:28:30;;;;;;;76.18;43.72;;;7.80;99.90;;;;;;2071359;28;20524;-67
2021/04/20 02:29:31;;;;;;;74.60;44.13;;;7.80;99.90;;;;;;2071869;28;20165;-68
2021/04/20 02:30:32;;;;;;;74.45;43.13;;;7.80;99.90;;;;;;2072069;28;20037;-69
2021/04/20 02:31:35;;;;;;;73.97;43.28;;;7.80;99.90;;;;;;2071865;28;20152;-67
2021/04/20 02:32:37;;;;;;;74.38;43.67;;;7.80;99.90;;;;;;2079449;28;20021;-67
2021/04/20 02:33:38;;;;;;;79.10;45.35;;;7.80;99.90;;;;;;2079443;28;20033;-67
2021/04/20 02:34:38;;;;;;;79.32;45.50;;;7.80;99.90;;;;;;2072040;28;20389;-67
2021/04/20 02:35:39;;;;;;;82.00;46.63;;;7.80;99.90;;;;;;2071873;28;20686;-69
2021/04/20 02:36:44;;;;;;;80.10;46.17;;;7.80;99.90;;;;;;2071552;28;20029;-70
2021/04/20 02:37:45;;;;;;;83.50;46.72;;;7.80;99.90;;;;;;2071297;28;20385;-69
2021/04/20 02:38:46;;;;;;;81.13;46.45;;;7.80;99.90;;;;;;2063305;28;20595;-69
2021/04/20 02:39:48;;;;;;;79.80;44.75;;;7.80;99.90;;;;;;2067951;28;20120;-69
2021/04/20 02:40:56;;;;;;;79.80;45.78;;;7.80;99.90;;;;;;2072061;28;20021;-69
2021/04/20 02:41:57;;;;;;;80.78;46.63;;;7.80;99.90;;;;;;2071952;28;20092;-70
2021/04/20 02:42:58;;;;;;;81.57;46.95;;;7.90;99.90;;;;;;2072072;28;20753;-69
2021/04/20 02:44:00;;;;;;;82.50;46.80;;;7.80;99.90;;;;;;2073044;28;20378;-69
2021/04/20 02:45:02;;;;;;;83.18;47.00;;;7.80;99.90;;;;;;2072737;28;20123;-69
2021/04/20 02:46:03;;;;;;;81.07;46.58;;;7.90;99.90;;;;;;2072615;28;20037;-69
2021/04/20 02:47:04;;;;;;;75.18;44.88;;;7.90;99.90;;;;;;2073436;28;20022;-69
2021/04/20 02:48:06;;;;;;;78.70;45.72;;;7.80;99.90;;;;;;2073350;28;20023;-69
2021/04/20 02:49:10;;;;;;;80.25;46.30;;;7.90;99.90;;;;;;2073395;28;20346;-69
2021/04/20 02:50:14;;;;;;;82.22;46.65;;;7.80;99.90;;;;;;2080905;28;20026;-69
2021/04/20 02:51:15;;;;;;;80.18;46.25;;;7.80;99.90;;;;;;2080549;28;20028;-68
2021/04/20 02:52:17;;;;;;;81.00;46.75;;;7.80;99.90;;;;;;2073357;28;20062;-69
2021/04/20 02:53:18;;;;;;;82.68;48.33;;;7.80;99.90;;;;;;2073377;28;20389;-68
2021/04/20 02:54:19;;;;;;;81.60;47.03;;;7.80;99.90;;;;;;2072605;28;20018;-69
2021/04/20 02:55:21;;;;;;;80.22;46.45;;;7.80;99.90;;;;;;2072170;28;20026;-69
2021/04/20 02:56:23;;;;;;;83.80;48.10;;;7.80;99.90;;;;;;2080252;28;20028;-68
2021/04/20 02:57:24;;;;;;;81.38;47.13;;;7.90;99.90;;;;;;2072639;28;20030;-69
2021/04/20 02:58:28;;;;;;;81.60;47.28;;;7.80;99.90;;;;;;2081397;28;20045;-69
2021/04/20 02:59:29;;;;;;;83.60;47.47;;;7.80;99.90;;;;;;2081551;28;20116;-70
2021/04/20 03:00:32;;;;;;;80.25;45.70;;;7.90;99.90;;;;;;2082228;28;20040;-69
2021/04/20 03:01:36;;;;;;;76.05;45.15;;;7.90;99.90;;;;;;2080410;28;20061;-69
2021/04/20 03:02:39;;;;;;;76.90;45.88;;;7.90;99.90;;;;;;2076322;28;20026;-68
2021/04/20 03:03:40;;;;;;;76.97;45.08;;;7.80;99.90;;;;;;2070890;28;20049;-68
2021/04/20 03:04:41;;;;;;;75.70;45.40;;;7.90;99.90;;;;;;2069690;28;20026;-68
2021/04/20 03:05:42;;;;;;;79.32;46.45;;;7.90;99.90;;;;;;2073668;28;20022;-68
2021/04/20 03:06:44;;;;;;;81.63;47.10;;;7.90;99.90;;;;;;2069655;28;20031;-69
2021/04/20 03:07:47;;;;;;;82.57;46.88;;;7.90;99.90;;;;;;2065686;28;20065;-69
2021/04/20 03:08:49;;;;;;;76.90;44.90;;;7.90;99.90;;;;;;2069924;28;20520;-68
2021/04/20 03:09:49;;;;;;;79.53;46.17;;;7.90;99.90;;;;;;2075861;28;20022;-69
2021/04/20 03:11:05;;;;;;;77.50;44.92;;;7.90;99.90;;;;;;2077772;28;20471;-68
2021/04/20 03:12:07;;;;;;;80.65;46.13;;;7.90;99.90;;;;;;2078913;28;20029;-68
2021/04/20 03:13:08;;;;;;;80.18;46.53;;;7.90;99.90;;;;;;2072625;28;20037;-67
2021/04/20 03:14:09;;;;;;;81.38;47.08;;;7.90;99.90;;;;;;2072596;28;20026;-68
2021/04/20 03:15:13;;;;;;;80.82;47.17;;;7.90;99.90;;;;;;2073271;28;20131;-68
2021/04/20 03:16:16;;;;;;;77.75;45.53;;;7.90;99.90;;;;;;2064867;28;20046;-68
2021/04/20 03:17:19;;;;;;;81.65;46.85;;;7.90;99.90;;;;;;2072907;28;20084;-69
2021/04/20 03:18:19;;;;;;;79.28;46.67;;;8.00;99.90;;;;;;2073164;28;20029;-69
2021/04/20 03:19:20;;;;;;;84.65;47.85;;;8.00;99.90;;;;;;2073039;28;20041;-68
2021/04/20 03:20:21;;;;;;;78.60;46.70;;;8.00;99.90;;;;;;2073072;28;20066;-68
2021/04/20 03:21:23;;;;;;;82.72;47.67;;;8.00;99.90;;;;;;2071875;28;20029;-69
2021/04/20 03:22:25;;;;;;;80.93;46.60;;;8.00;99.90;;;;;;2066430;28;20157;-68
2021/04/20 03:23:27;;;;;;;84.68;48.92;;;8.10;99.90;;;;;;2080472;28;20420;-68
2021/04/20 03:24:31;;;;;;;81.05;48.22;;;8.10;99.90;;;;;;2079792;28;20497;-68
2021/04/20 03:25:34;;;;;;;77.13;45.63;;;8.10;99.90;;;;;;2067424;28;20022;-69
2021/04/20 03:26:38;;;;;;;80.05;46.90;;;8.10;99.90;;;;;;2072688;28;20036;-68
2021/04/20 03:27:44;;;;;;;75.55;46.20;;;8.10;99.90;;;;;;2072894;28;20033;-69
2021/04/20 03:28:44;;;;;;;77.65;47.38;;;8.10;99.90;;;;;;2073150;28;20029;-69
2021/04/20 03:29:45;;;;;;;76.00;45.15;;;8.10;99.90;;;;;;2073027;28;20022;-68
2021/04/20 03:30:46;;;;;;;74.78;45.10;;;8.10;99.90;;;;;;2073038;28;20750;-68
2021/04/20 03:31:48;;;;;;;73.43;43.83;;;8.10;99.90;;;;;;2072437;28;20026;-68
2021/04/20 03:32:54;;;;;;;72.57;44.38;;;8.10;99.90;;;;;;2072436;28;20084;-67
2021/04/20 03:34:02;;;;;;;74.10;43.67;;;8.10;99.90;;;;;;2067702;28;20030;-67
2021/04/20 03:35:13;;;;;;;73.30;44.08;;;8.10;99.90;;;;;;2065283;28;20050;-67
2021/04/20 03:36:19;;;;;;;70.00;42.47;;;8.20;99.90;;;;;;2065000;28;20027;-68
2021/04/20 03:37:29;;;;;;;75.22;44.47;;;8.20;99.90;;;;;;2071480;28;20220;-68
2021/04/20 03:38:49;;;;;;;73.65;43.95;;;8.20;99.90;;;;;;2067059;28;20062;-67
2021/04/20 03:39:53;;;;;;;73.55;43.88;;;8.20;99.90;;;;;;2072507;28;20026;-67
2021/04/20 03:40:59;;;;;;;72.50;44.05;;;8.20;99.90;;;;;;2067284;28;20153;-67
2021/04/20 03:42:08;;;;;;;77.70;45.88;;;8.30;99.90;;;;;;2071467;28;20379;-67
2021/04/20 03:43:13;;;;;;;75.03;44.47;;;8.30;99.90;;;;;;2073310;28;20022;-67
2021/04/20 03:44:25;;;;;;;76.32;45.47;;;8.30;99.90;;;;;;2065327;28;20077;-67
2021/04/20 03:45:33;;;;;;;72.82;44.38;;;8.30;99.90;;;;;;2071490;28;20048;-67
2021/04/20 03:46:38;;;;;;;70.35;41.92;;;8.30;99.90;;;;;;2067697;28;20017;-68
2021/04/20 03:47:41;;;;;;;66.07;41.58;;;8.30;99.90;;;;;;2069731;28;20048;-67
2021/04/20 03:48:51;;;;;;;69.63;42.22;;;8.30;99.90;;;;;;2072353;28;20014;-67
2021/04/20 03:49:55;;;;;;;71.80;43.50;;;8.30;99.90;;;;;;2063436;28;20027;-67
2021/04/20 03:50:59;;;;;;;68.90;42.13;;;8.30;99.90;;;;;;2062671;28;20360;-67
2021/04/20 03:52:01;;;;;;;70.80;43.42;;;8.30;99.90;;;;;;2066169;28;20532;-67
2021/04/20 03:53:06;;;;;;;68.47;42.97;;;8.30;99.90;;;;;;2070977;28;20026;-69
2021/04/20 03:54:08;;;;;;;73.38;44.33;;;8.30;99.90;;;;;;2072751;28;20073;-68
2021/04/20 03:55:12;;;;;;;70.55;43.72;;;8.30;99.90;;;;;;2072686;28;20541;-68
2021/04/20 03:56:14;;;;;;;73.38;45.42;;;8.30;99.90;;;;;;2064808;28;20112;-68
2021/04/20 03:57:15;;;;;;;71.22;44.97;;;8.40;99.90;;;;;;2065057;28;20645;-68
2021/04/20 03:58:18;;;;;;;77.93;47.03;;;8.40;99.90;;;;;;2065462;28;20034;-69
2021/04/20 03:59:21;;;;;;;76.22;46.47;;;8.40;99.90;;;;;;2073084;28;20026;-68
2021/04/20 04:00:23;;;;;;;74.53;45.15;;;8.40;99.90;;;;;;2073122;28;20030;-68
2021/04/20 04:01:24;;;;;;;73.65;45.45;;;8.40;99.90;;;;;;2079135;28;20469;-68
2021/04/20 04:02:25;;;;;;;77.03;46.95;;;8.40;99.90;;;;;;2074229;28;20022;-68
2021/04/20 04:03:27;;;;;;;75.13;46.28;;;8.40;99.90;;;;;;2073123;28;20036;-68
2021/04/20 04:04:29;;;;;;;72.60;45.03;;;8.40;99.90;;;;;;2072975;28;20028;-68
2021/04/20 04:05:31;;;;;;;70.20;44.60;;;8.40;99.90;;;;;;2073141;28;20474;-68
2021/04/20 04:06:37;;;;;;;71.00;42.97;;;8.40;99.90;;;;;;2070322;28;20030;-68
2021/04/20 04:07:39;;;;;;;66.68;42.33;;;8.40;99.90;;;;;;2064951;28;20057;-69
2021/04/20 04:08:41;;;;;;;67.85;42.25;;;8.40;99.90;;;;;;2068476;28;20350;-68
2021/04/20 04:09:44;;;;;;;73.10;43.38;;;8.40;99.90;;;;;;2068457;28;20018;-68
2021/04/20 04:10:50;;;;;;;72.35;43.97;;;8.40;99.90;;;;;;2068714;28;20040;-69
2021/04/20 04:12:00;;;;;;;72.03;44.45;;;8.40;99.90;;;;;;2073049;28;20537;-68
2021/04/20 04:13:09;;;;;;;70.85;43.42;;;8.40;99.90;;;;;;2072901;28;20041;-69
2021/04/20 04:14:11;;;;;;;69.93;43.20;;;8.40;99.90;;;;;;2072247;28;20022;-68
2021/04/20 04:15:13;;;;;;;70.43;43.25;;;8.40;99.90;;;;;;2072301;28;20144;-68
2021/04/20 04:16:18;;;;;;;70.57;44.15;;;8.40;99.90;;;;;;2072450;28;20022;-68
2021/04/20 04:17:21;;;;;;;68.03;42.85;;;8.40;99.90;;;;;;2055979;28;20453;-69
2021/04/20 04:18:24;;;;;;;75.60;45.58;;;8.40;99.90;;;;;;2057566;28;20037;-68
2021/04/20 04:19:28;;;;;;;75.25;44.85;;;8.40;99.90;;;;;;2072613;28;20068;-70
2021/04/20 04:20:29;;;;;;;72.18;43.95;;;8.40;99.90;;;;;;2072595;28;20014;-70
2021/04/20 04:21:41;;;;;;;73.88;45.35;;;8.40;99.90;;;;;;2072756;28;20112;-69
2021/04/20 04:23:05;;;;;;;72.53;44.72;;;8.40;99.90;;;;;;2072692;28;20029;-70
2021/04/20 04:24:09;;;;;;;73.78;44.47;;;8.40;99.90;;;;;;2060805;28;20393;-70
2021/04/20 04:25:13;;;;;;;75.25;45.38;;;8.40;99.90;;;;;;2071560;28;20026;-69
2021/04/20 04:26:16;;;;;;;74.43;45.67;;;8.40;99.90;;;;;;2063710;28;20117;-68
2021/04/20 04:27:21;;;;;;;76.72;45.88;;;8.40;99.90;;;;;;2072602;28;20071;-68
2021/04/20 04:28:24;;;;;;;75.78;46.78;;;8.40;99.90;;;;;;2072677;28;20030;-68
2021/04/20 04:29:26;;;;;;;80.05;48.10;;;8.40;99.90;;;;;;2072562;28;20384;-67
2021/04/20 04:30:28;;;;;;;79.03;47.25;;;8.40;99.90;;;;;;2072534;28;20034;-68
2021/04/20 04:31:33;;;;;;;77.07;47.05;;;8.50;99.90;;;;;;2072509;28;20557;-70
2021/04/20 04:32:36;;;;;;;75.30;45.75;;;8.50;99.90;;;;;;2072488;28;20037;-69
2021/04/20 04:33:40;;;;;;;79.05;48.33;;;8.50;99.90;;;;;;2072524;28;20425;-68
2021/04/20 04:34:41;;;;;;;77.97;46.80;;;8.50;99.90;;;;;;2080025;28;20428;-69
2021/04/20 04:35:47;;;;;;;74.95;45.67;;;8.50;99.90;;;;;;2080017;28;20149;-67
2021/04/20 04:36:48;;;;;;;76.57;46.42;;;8.50;99.90;;;;;;2072587;28;20416;-67
2021/04/20 04:37:49;;;;;;;77.45;46.88;;;8.60;99.90;;;;;;2067571;28;20054;-70
2021/04/20 04:38:50;;;;;;;75.70;45.47;;;8.60;99.90;;;;;;2069620;28;20022;-67
2021/04/20 04:39:51;;;;;;;70.28;44.35;;;8.60;99.90;;;;;;2072519;28;20474;-67
2021/04/20 04:40:52;;;;;;;72.13;44.75;;;8.60;99.90;;;;;;2072601;28;20071;-68
2021/04/20 04:41:56;;;;;;;76.60;45.50;;;8.60;99.90;;;;;;2080027;28;20071;-68
2021/04/20 04:42:59;;;;;;;70.60;43.97;;;8.60;99.90;;;;;;2079684;28;20033;-68
2021/04/20 04:44:00;;;;;;;68.22;43.08;;;8.60;99.90;;;;;;2072506;28;20105;-67
2021/04/20 04:45:05;;;;;;;70.65;43.75;;;8.60;99.90;;;;;;2071710;28;20489;-67
2021/04/20 04:46:06;;;;;;;68.32;42.42;;;8.60;99.90;;;;;;2071035;28;20066;-67
2021/04/20 04:47:07;;;;;;;72.03;44.88;;;8.60;99.90;;;;;;2071553;28;20033;-66
2021/04/20 04:48:12;;;;;;;72.43;44.80;;;8.60;99.90;;;;;;2072476;28;20160;-67
2021/04/20 04:49:15;;;;;;;68.55;42.38;;;8.60;99.90;;;;;;2071774;28;20496;-66
2021/04/20 04:50:16;;;;;;;72.82;44.25;;;8.60;99.90;;;;;;2056481;28;20061;-66
2021/04/20 04:51:17;;;;;;;74.30;44.90;;;8.60;99.90;;;;;;2072033;28;20060;-68
2021/04/20 04:52:19;;;;;;;70.88;43.97;;;8.60;99.90;;;;;;2072548;28;20042;-67
2021/04/20 04:53:20;;;;;;;71.97;43.78;;;8.60;99.90;;;;;;2072599;28;20029;-67
2021/04/20 04:54:22;;;;;;;67.43;41.97;;;8.60;99.90;;;;;;2072588;28;20036;-69
2021/04/20 04:55:22;;;;;;;67.68;41.97;;;8.70;99.90;;;;;;2072207;28;20022;-68
2021/04/20 04:56:24;;;;;;;68.07;41.92;;;8.70;99.90;;;;;;2071459;28;20034;-67
2021/04/20 04:57:27;;;;;;;68.15;42.63;;;8.70;99.90;;;;;;2071723;28;20037;-68
2021/04/20 04:58:30;;;;;;;67.55;42.25;;;8.70;99.90;;;;;;2072347;28;20018;-68
2021/04/20 04:59:33;;;;;;;67.43;42.13;;;8.70;99.90;;;;;;2072368;28;20417;-69
2021/04/20 05:00:35;;;;;;;70.90;43.33;;;8.70;99.90;;;;;;2072452;28;20486;-69
2021/04/20 05:01:41;;;;;;;71.03;43.42;;;8.80;99.90;;;;;;2072399;28;20037;-69
2021/04/20 05:02:42;;;;;;;70.50;44.28;;;8.80;99.90;;;;;;2072355;28;20022;-69
2021/04/20 05:03:43;;;;;;;67.38;42.53;;;8.80;99.90;;;;;;2072396;28;20037;-68
2021/04/20 05:04:43;;;;;;;71.28;44.33;;;8.80;99.90;;;;;;2072465;28;20049;-69
2021/04/20 05:05:45;;;;;;;72.65;45.25;;;8.80;99.90;;;;;;2071661;28;20022;-68
2021/04/20 05:06:48;;;;;;;69.85;44.17;;;8.90;99.90;;;;;;2071585;28;20034;-70
2021/04/20 05:07:49;;;;;;;74.95;45.38;;;8.90;99.90;;;;;;2072024;28;20061;-69
2021/04/20 05:08:49;;;;;;;71.30;44.63;;;8.90;99.90;;;;;;2072618;28;20018;-70
2021/04/20 05:09:51;;;;;;;70.18;44.30;;;8.90;99.90;;;;;;2072546;28;20315;-68
2021/04/20 05:10:52;;;;;;;70.72;43.53;;;9.00;99.90;;;;;;2067270;28;20386;-68
2021/04/20 05:11:53;;;;;;;73.03;44.72;;;8.90;99.90;;;;;;2069742;28;20032;-68
2021/04/20 05:12:54;;;;;;;71.72;44.90;;;8.90;99.90;;;;;;2072875;28;20018;-72
2021/04/20 05:13:54;;;;;;;72.30;44.50;;;9.00;99.90;;;;;;2072686;28;20022;-68
2021/04/20 05:14:55;;;;;;;67.75;43.00;;;9.00;99.90;;;;;;2067220;28;20109;-71
2021/04/20 05:15:56;;;;;;;67.25;42.88;;;9.00;99.90;;;;;;2064816;28;20142;-72
2021/04/20 05:16:56;;;;;;;67.15;42.08;;;9.00;99.90;;;;;;2070753;28;20022;-72
2021/04/20 05:17:57;;;;;;;65.43;40.75;;;9.00;99.90;;;;;;2067458;28;20109;-73
2021/04/20 05:19:03;;;;;;;68.60;43.28;;;9.10;99.90;;;;;;2066176;28;20067;-74
2021/04/20 05:20:12;;;;;;;70.20;42.65;;;9.10;99.90;;;;;;2072587;28;20031;-72